createdAt,value
2019-01-12T00:01:22.652Z,93.15
2019-01-12T00:03:53.757Z,92.93
2019-01-12T00:06:27.785Z,93.01
2019-01-12T00:08:58.934Z,93.35
2019-01-12T00:11:31.062Z,93.22
2019-01-12T00:14:01.897Z,93.33
2019-01-12T00:16:32.774Z,92.85
2019-01-12T00:19:03.599Z,92.74
2019-01-12T00:21:34.412Z,92.55
2019-01-12T00:24:05.209Z,92.41
2019-01-12T00:26:36.037Z,91.89
2019-01-12T00:29:06.812Z,91.71
2019-01-12T00:31:37.641Z,91.45
2019-01-12T00:34:08.477Z,91.54
2019-01-12T00:36:39.305Z,91.50
2019-01-12T00:39:10.357Z,91.13
2019-01-12T00:41:41.133Z,90.83
2019-01-12T00:44:12.015Z,91.10
2019-01-12T00:46:42.794Z,91.47
2019-01-12T00:49:13.553Z,91.17
2019-01-12T00:51:44.341Z,91.09
2019-01-12T00:54:15.147Z,91.20
2019-01-12T00:56:45.874Z,91.33
2019-01-12T00:59:16.624Z,90.95
2019-01-12T01:01:47.453Z,91.08
2019-01-12T01:04:18.265Z,91.03
2019-01-12T01:06:49.073Z,90.70
2019-01-12T01:09:19.841Z,90.38
2019-01-12T01:11:50.671Z,90.21
2019-01-12T01:14:21.431Z,90.12
2019-01-12T01:16:52.247Z,90.06
2019-01-12T01:19:23.061Z,89.72
2019-01-12T01:21:54.145Z,89.25
2019-01-12T01:24:24.961Z,88.81
2019-01-12T01:26:55.729Z,88.86
2019-01-12T01:29:26.499Z,89.05
2019-01-12T01:31:57.267Z,89.08
2019-01-12T01:34:28.076Z,89.15
2019-01-12T01:36:58.905Z,89.28
2019-01-12T01:39:29.669Z,88.97
2019-01-12T01:42:00.469Z,88.94
2019-01-12T01:44:31.284Z,88.69
2019-01-12T01:47:02.151Z,88.24
2019-01-12T01:49:32.916Z,88.52
2019-01-12T01:52:03.729Z,89.23
2019-01-12T01:54:34.549Z,89.62
2019-01-12T01:57:05.384Z,88.64
2019-01-12T01:59:36.124Z,88.71
2019-01-12T02:02:06.889Z,88.46
2019-01-12T02:04:37.645Z,88.57
2019-01-12T02:07:08.484Z,88.14
2019-01-12T02:09:39.268Z,88.75
2019-01-12T02:12:10.058Z,89.50
2019-01-12T02:14:40.901Z,89.93
2019-01-12T02:17:11.708Z,89.38
2019-01-12T02:19:42.528Z,89.68
2019-01-12T02:22:13.295Z,89.69
2019-01-12T02:24:44.087Z,89.37
2019-01-12T02:27:14.886Z,89.12
2019-01-12T02:29:45.660Z,88.92
2019-01-12T02:32:16.462Z,88.18
2019-01-12T02:34:47.276Z,87.01
2019-01-12T02:37:18.002Z,86.76
2019-01-12T02:39:48.827Z,86.79
2019-01-12T02:42:19.548Z,87.03
2019-01-12T02:44:50.350Z,86.84
2019-01-12T02:47:21.211Z,87.08
2019-01-12T02:50:05.372Z,87.06
2019-01-12T02:52:36.146Z,87.09
2019-01-12T02:55:09.011Z,86.71
2019-01-12T02:57:40.043Z,86.18
2019-01-12T03:00:19.312Z,85.81
2019-01-12T03:02:54.576Z,85.81
2019-01-12T03:05:25.368Z,85.69
2019-01-12T03:07:56.274Z,85.76
2019-01-12T03:10:27.184Z,85.75
2019-01-12T03:12:57.980Z,86.04
2019-01-12T03:15:30.568Z,86.11
2019-01-12T03:18:01.460Z,86.41
2019-01-12T03:20:34.448Z,86.76
2019-01-12T03:23:05.910Z,86.85
2019-01-12T03:25:37.971Z,86.23
2019-01-12T03:28:10.420Z,85.72
2019-01-12T03:30:41.217Z,85.38
2019-01-12T03:33:12.143Z,85.12
2019-01-12T03:35:43.024Z,85.23
2019-01-12T03:38:16.402Z,85.23
2019-01-12T03:40:48.376Z,85.60
2019-01-12T03:43:21.572Z,85.61
2019-01-12T03:45:55.001Z,85.15
2019-01-12T03:48:28.069Z,84.91
2019-01-12T03:50:58.872Z,85.40
2019-01-12T03:53:31.092Z,85.46
2019-01-12T03:56:01.843Z,85.32
2019-01-12T03:58:34.712Z,85.72
2019-01-12T04:01:08.575Z,85.45
2019-01-12T04:03:39.410Z,85.70
2019-01-12T04:06:10.285Z,85.26
2019-01-12T04:08:41.111Z,85.46
2019-01-12T04:11:11.896Z,84.93
2019-01-12T04:13:45.425Z,84.94
2019-01-12T04:16:16.200Z,84.31
2019-01-12T04:18:47.057Z,83.96
2019-01-12T04:21:17.825Z,84.15
2019-01-12T04:23:48.595Z,83.63
2019-01-12T04:26:19.356Z,83.63
2019-01-12T04:28:50.160Z,83.92
2019-01-12T04:31:20.918Z,83.69
2019-01-12T04:33:51.727Z,83.62
2019-01-12T04:36:22.479Z,83.29
2019-01-12T04:38:53.279Z,83.05
2019-01-12T04:41:24.014Z,83.15
2019-01-12T04:43:54.843Z,82.79
2019-01-12T04:46:25.596Z,82.95
2019-01-12T04:48:56.351Z,83.06
2019-01-12T04:51:27.154Z,83.11
2019-01-12T04:53:57.954Z,83.22
2019-01-12T04:56:28.674Z,82.93
2019-01-12T04:58:59.477Z,81.98
2019-01-12T05:01:30.317Z,82.14
2019-01-12T05:04:01.125Z,81.94
2019-01-12T05:06:31.912Z,81.63
2019-01-12T05:09:03.187Z,82.11
2019-01-12T05:11:33.959Z,82.68
2019-01-12T05:14:04.764Z,82.49
2019-01-12T05:16:35.559Z,82.69
2019-01-12T05:19:06.381Z,82.93
2019-01-12T05:21:37.223Z,83.21
2019-01-12T05:24:08.035Z,83.67
2019-01-12T05:26:38.795Z,84.06
2019-01-12T05:29:09.567Z,84.42
2019-01-12T05:31:40.442Z,84.73
2019-01-12T05:34:11.181Z,84.71
2019-01-12T05:36:41.973Z,84.58
2019-01-12T05:39:12.778Z,84.70
2019-01-12T05:41:43.671Z,84.22
2019-01-12T05:44:14.454Z,84.01
2019-01-12T05:46:45.259Z,84.41
2019-01-12T05:49:16.012Z,83.29
2019-01-12T05:51:47.711Z,82.88
2019-01-12T05:54:18.498Z,83.33
2019-01-12T05:56:49.299Z,83.70
2019-01-12T05:59:20.083Z,83.86
2019-01-12T06:01:50.866Z,82.87
2019-01-12T06:04:21.660Z,82.61
2019-01-12T06:06:52.474Z,83.15
2019-01-12T06:09:23.350Z,82.90
2019-01-12T06:11:54.096Z,82.57
2019-01-12T06:14:24.933Z,82.50
2019-01-12T06:16:55.762Z,82.55
2019-01-12T06:19:26.582Z,82.49
2019-01-12T06:21:57.285Z,83.17
2019-01-12T06:24:28.130Z,82.94
2019-01-12T06:26:58.865Z,82.68
2019-01-12T06:29:29.634Z,83.00
2019-01-12T06:32:00.442Z,82.41
2019-01-12T06:34:31.303Z,82.19
2019-01-12T06:37:02.156Z,82.17
2019-01-12T06:39:33.094Z,82.02
2019-01-12T06:42:03.878Z,82.35
2019-01-12T06:44:34.712Z,81.76
2019-01-12T06:47:05.614Z,81.16
2019-01-12T06:49:36.389Z,81.69
2019-01-12T06:52:07.132Z,81.92
2019-01-12T06:54:37.972Z,81.89
2019-01-12T06:57:08.730Z,80.96
2019-01-12T06:59:39.559Z,80.34
2019-01-12T07:02:10.392Z,80.95
2019-01-12T07:04:41.245Z,80.98
2019-01-12T07:07:12.103Z,80.57
2019-01-12T07:09:42.825Z,80.87
2019-01-12T07:12:13.671Z,80.90
2019-01-12T07:14:44.515Z,80.63
2019-01-12T07:17:15.370Z,80.43
2019-01-12T07:19:46.278Z,80.28
2019-01-12T07:22:17.059Z,80.58
2019-01-12T07:24:47.871Z,79.97
2019-01-12T07:27:19.929Z,79.59
2019-01-12T07:29:50.778Z,79.74
2019-01-12T07:32:21.641Z,79.83
2019-01-12T07:34:52.505Z,79.42
2019-01-12T07:37:23.277Z,79.05
2019-01-12T07:39:54.189Z,78.96
2019-01-12T07:42:25.072Z,78.72
2019-01-12T07:44:56.127Z,79.07
2019-01-12T07:47:26.944Z,79.06
2019-01-12T07:49:57.752Z,79.16
2019-01-12T07:52:28.633Z,79.03
2019-01-12T07:54:59.441Z,78.96
2019-01-12T07:57:30.282Z,78.80
2019-01-12T08:00:02.013Z,79.36
2019-01-12T08:02:33.209Z,79.43
2019-01-12T08:05:04.276Z,79.64
2019-01-12T08:07:35.248Z,78.97
2019-01-12T08:10:09.677Z,78.73
2019-01-12T08:12:40.501Z,79.02
2019-01-12T08:15:11.605Z,78.65
2019-01-12T08:17:42.562Z,78.70
2019-01-12T08:20:13.800Z,78.74
2019-01-12T08:22:44.605Z,78.50
2019-01-12T08:25:15.771Z,78.33
2019-01-12T08:27:46.586Z,78.33
2019-01-12T08:30:19.554Z,77.90
2019-01-12T08:32:50.521Z,77.79
2019-01-12T08:35:21.369Z,77.17
2019-01-12T08:37:52.291Z,77.18
2019-01-12T08:40:23.113Z,77.43
2019-01-12T08:42:53.910Z,77.43
2019-01-12T08:45:24.719Z,77.60
2019-01-12T08:47:55.543Z,76.84
2019-01-12T08:50:26.302Z,76.46
2019-01-12T08:52:57.099Z,76.00
2019-01-12T08:55:27.929Z,76.06
2019-01-12T08:57:58.721Z,75.67
2019-01-12T09:00:29.545Z,75.89
2019-01-12T09:03:00.719Z,75.21
2019-01-12T09:05:32.051Z,75.67
2019-01-12T09:08:03.206Z,75.75
2019-01-12T09:10:34.506Z,75.19
2019-01-12T09:13:05.815Z,75.30
2019-01-12T09:15:38.735Z,75.94
2019-01-12T09:18:12.570Z,76.32
2019-01-12T09:20:45.302Z,76.20
2019-01-12T09:23:16.332Z,76.48
2019-01-12T09:25:48.738Z,76.10
2019-01-12T09:28:19.729Z,76.48
2019-01-12T09:30:51.043Z,76.68
2019-01-12T09:33:25.610Z,76.65
2019-01-12T09:35:56.497Z,76.48
2019-01-12T09:38:27.345Z,77.37
2019-01-12T09:40:58.214Z,78.04
2019-01-12T09:43:29.164Z,78.32
2019-01-12T09:46:00.011Z,79.03
2019-01-12T09:48:30.960Z,79.69
2019-01-12T09:51:01.804Z,79.91
2019-01-12T09:53:32.578Z,80.45
2019-01-12T09:56:03.451Z,80.98
2019-01-12T09:58:34.257Z,81.27
2019-01-12T10:01:05.274Z,81.25
2019-01-12T10:03:36.419Z,81.91
2019-01-12T10:06:07.567Z,81.93
2019-01-12T10:08:38.441Z,82.00
2019-01-12T10:11:09.344Z,81.46
2019-01-12T10:13:40.320Z,81.41
2019-01-12T10:16:11.051Z,82.21
2019-01-12T10:18:41.940Z,82.62
2019-01-12T10:21:12.824Z,83.06
2019-01-12T10:23:43.759Z,83.50
2019-01-12T10:26:14.578Z,83.76
2019-01-12T10:28:45.401Z,83.91
2019-01-12T10:31:16.229Z,84.14
2019-01-12T10:33:47.193Z,84.95
2019-01-12T10:36:18.356Z,85.68
2019-01-12T10:38:49.268Z,86.47
2019-01-12T10:41:20.072Z,86.11
2019-01-12T10:43:50.958Z,85.90
2019-01-12T10:46:21.828Z,85.76
2019-01-12T10:48:52.731Z,85.14
2019-01-12T10:51:23.616Z,84.87
2019-01-12T10:53:54.480Z,84.91
2019-01-12T10:56:25.353Z,83.74
2019-01-12T10:58:57.201Z,83.59
2019-01-12T11:01:28.187Z,82.29
2019-01-12T11:03:59.011Z,81.63
2019-01-12T11:06:29.978Z,81.75
2019-01-12T11:09:00.781Z,80.70
2019-01-12T11:11:32.867Z,80.42
2019-01-12T11:14:04.210Z,80.15
2019-01-12T11:16:38.081Z,79.70
2019-01-12T11:19:09.094Z,80.24
2019-01-12T11:21:40.122Z,80.31
2019-01-12T11:24:11.184Z,79.97
2019-01-12T11:26:42.449Z,79.10
2019-01-12T11:29:13.558Z,78.89
2019-01-12T11:31:44.876Z,78.97
2019-01-12T11:34:15.652Z,79.38
2019-01-12T11:36:46.514Z,79.24
2019-01-12T12:20:30.128Z,79.39
2019-01-12T12:23:01.102Z,80.02
2019-01-12T12:25:35.380Z,80.97
2019-01-12T12:28:06.477Z,81.39
2019-01-12T12:30:37.703Z,81.96
2019-01-12T12:33:08.948Z,82.56
2019-01-12T12:35:42.083Z,82.86
2019-01-12T12:38:14.503Z,81.72
2019-01-12T12:40:48.963Z,81.63
2019-01-12T12:43:20.342Z,81.44
2019-01-12T12:45:56.181Z,81.13
2019-01-12T12:48:30.912Z,80.61
2019-01-12T12:51:38.952Z,81.20
2019-01-12T12:53:47.457Z,81.36
2019-01-12T12:56:20.594Z,81.69
2019-01-12T12:58:52.763Z,80.93
2019-01-12T13:01:25.002Z,81.09
2019-01-12T13:03:57.162Z,80.68
2019-01-12T13:06:31.382Z,79.82
2019-01-12T13:09:02.311Z,78.50
2019-01-12T13:11:33.143Z,78.20
2019-01-12T13:14:10.136Z,77.62
2019-01-12T13:16:40.913Z,77.17
2019-01-12T13:19:12.431Z,77.43
2019-01-12T13:21:45.946Z,77.59
2019-01-12T13:24:15.905Z,76.43
2019-01-12T13:26:46.908Z,76.73
2019-01-12T13:29:17.859Z,77.19
2019-01-12T13:31:48.689Z,77.67
2019-01-12T13:34:27.231Z,76.98
2019-01-12T13:36:58.264Z,77.58
2019-01-12T13:39:32.105Z,76.92
2019-01-12T13:42:01.951Z,76.97
2019-01-12T13:44:32.797Z,77.56
2019-01-12T13:47:03.860Z,77.32
2019-01-12T13:49:34.883Z,77.06
2019-01-12T13:52:09.284Z,76.34
2019-01-12T13:54:42.273Z,75.48
2019-01-12T13:57:13.646Z,76.20
2019-01-12T13:59:48.403Z,75.93
2019-01-12T14:02:21.670Z,75.88
2019-01-12T14:04:54.187Z,77.27
2019-01-12T14:07:27.644Z,77.31
2019-01-12T14:10:00.479Z,78.28
2019-01-12T14:12:34.549Z,78.17
2019-01-12T14:15:13.951Z,77.90
2019-01-12T14:17:50.065Z,78.38
2019-01-12T14:20:36.815Z,78.52
2019-01-12T14:23:14.347Z,78.50
2019-01-12T14:25:50.892Z,78.20
2019-01-12T14:28:29.774Z,78.40
2019-01-12T14:31:09.646Z,78.46
2019-01-12T14:33:46.640Z,79.07
2019-01-12T14:36:23.125Z,79.41
2019-01-12T14:38:59.439Z,79.03
2019-01-12T14:41:33.996Z,79.16
2019-01-12T14:44:17.219Z,79.33
2019-01-12T14:46:55.847Z,79.94
2019-01-12T14:49:33.150Z,80.88
2019-01-12T14:52:07.747Z,81.29
2019-01-12T14:54:43.608Z,81.30
2019-01-12T14:57:19.074Z,82.24
2019-01-12T14:59:55.534Z,81.79
2019-01-12T15:02:34.038Z,82.42
2019-01-12T15:05:13.079Z,82.76
2019-01-12T15:07:49.971Z,83.12
2019-01-12T15:10:33.907Z,82.56
2019-01-12T15:13:44.377Z,82.85
2019-01-12T15:16:18.014Z,83.26
2019-01-12T15:18:56.626Z,83.09
2019-01-12T15:21:33.638Z,82.79
2019-01-12T15:24:12.061Z,83.02
2019-01-12T15:26:45.086Z,83.14
2019-01-12T15:29:21.719Z,83.02
2019-01-12T15:31:56.995Z,82.40
2019-01-12T15:34:32.481Z,82.48
2019-01-12T15:37:11.510Z,83.65
2019-01-12T15:39:42.442Z,83.45
2019-01-12T15:42:14.318Z,83.84
2019-01-12T15:44:45.570Z,84.34
2019-01-12T15:47:16.875Z,85.30
2019-01-12T15:49:48.956Z,85.62
2019-01-12T15:52:20.066Z,85.91
2019-01-12T15:54:51.386Z,87.63
2019-01-12T15:57:33.145Z,88.47
2019-01-12T16:00:04.260Z,89.77
2019-01-12T16:02:39.832Z,89.93
2019-01-12T16:05:10.102Z,89.67
2019-01-12T16:07:44.502Z,89.74
2019-01-12T16:10:23.195Z,89.91
2019-01-12T16:12:54.730Z,89.73
2019-01-12T16:15:30.140Z,89.47
2019-01-12T16:18:02.477Z,90.04
2019-01-12T16:20:43.150Z,90.64
2019-01-12T16:23:18.685Z,91.46
2019-01-12T16:25:51.540Z,92.45
2019-01-12T16:28:23.437Z,92.70
2019-01-12T16:31:19.585Z,93.07
2019-01-12T16:33:38.276Z,93.60
2019-01-12T16:36:09.279Z,92.59
2019-01-12T16:38:40.234Z,92.07
2019-01-12T16:41:16.853Z,92.70
2019-01-12T16:43:48.222Z,92.68
2019-01-12T16:46:20.906Z,92.88
2019-01-12T16:48:51.822Z,92.65
2019-01-12T16:51:23.054Z,92.41
2019-01-12T16:53:54.072Z,93.01
2019-01-12T16:56:26.939Z,93.48
2019-01-12T16:58:57.757Z,93.96
2019-01-12T17:01:28.761Z,94.25
2019-01-12T17:03:59.945Z,94.12
2019-01-12T17:06:32.857Z,94.05
2019-01-12T17:09:05.823Z,93.68
2019-01-12T17:11:36.980Z,94.27
2019-01-12T17:14:08.748Z,94.77
2019-01-12T17:16:43.371Z,95.30
2019-01-12T17:19:14.462Z,94.88
2019-01-12T17:21:46.785Z,93.27
2019-01-12T17:24:19.665Z,94.33
2019-01-12T17:32:45.431Z,94.44
2019-01-12T17:55:41.360Z,95.85
2019-01-12T17:58:15.173Z,96.65
2019-01-12T18:00:51.739Z,96.79
2019-01-12T18:03:25.080Z,96.24
2019-01-12T18:06:02.511Z,96.77
2019-01-12T18:08:44.475Z,97.11
2019-01-12T18:11:25.424Z,97.16
2019-01-12T18:14:05.793Z,97.05
2019-01-12T18:16:45.149Z,96.93
2019-01-12T18:19:25.604Z,97.28
2019-01-12T18:22:05.634Z,97.74
2019-01-12T18:24:46.041Z,97.33
2019-01-12T18:27:27.936Z,97.23
2019-01-12T18:30:09.589Z,97.66
2019-01-12T18:32:53.336Z,97.63
2019-01-12T18:35:32.173Z,97.35
2019-01-12T18:38:13.435Z,96.17
2019-01-12T18:40:56.129Z,96.68
2019-01-12T18:43:38.045Z,96.48
2019-01-12T18:46:20.793Z,96.46
2019-01-12T18:49:01.954Z,96.91
2019-01-12T18:51:40.049Z,97.26
2019-01-12T18:54:20.757Z,96.83
2019-01-12T18:57:02.251Z,96.42
2019-01-12T18:59:42.317Z,96.58
2019-01-12T19:02:13.326Z,97.01
2019-01-12T19:04:44.224Z,97.17
2019-01-12T19:07:15.164Z,96.97
2019-01-12T19:09:46.031Z,97.20
2019-01-12T19:12:18.906Z,97.08
2019-01-12T19:14:49.828Z,97.02
2019-01-12T19:17:20.708Z,96.63
2019-01-12T19:19:51.728Z,96.78
2019-01-12T19:22:22.815Z,96.62
2019-01-12T19:24:53.722Z,96.03
2019-01-12T19:27:24.914Z,95.78
2019-01-12T19:29:59.465Z,94.87
2019-01-12T19:32:39.015Z,93.32
2019-01-12T19:35:14.470Z,93.58
2019-01-12T19:37:46.545Z,93.72
2019-01-12T19:40:26.827Z,93.68
2019-01-12T19:42:58.834Z,93.36
2019-01-12T19:45:30.700Z,93.42
2019-01-12T19:48:01.837Z,94.14
2019-01-12T19:50:33.190Z,93.74
2019-01-12T19:53:04.476Z,93.63
2019-01-12T19:55:35.411Z,93.19
2019-01-12T19:58:06.951Z,92.85
2019-01-12T20:00:40.877Z,92.85
2019-01-12T20:03:12.032Z,93.10
2019-01-12T20:05:42.948Z,92.97
2019-01-12T20:08:14.252Z,92.56
2019-01-12T20:10:45.563Z,92.82
2019-01-12T20:13:16.522Z,92.39
2019-01-12T20:15:47.940Z,92.28
2019-01-12T20:18:19.190Z,92.56
2019-01-12T20:20:50.442Z,92.16
2019-01-12T20:23:22.755Z,92.08
2019-01-12T20:25:54.033Z,92.47
2019-01-12T20:28:26.928Z,92.14
2019-01-12T20:31:41.521Z,91.83
2019-01-12T20:34:41.495Z,92.29
2019-01-12T20:38:20.296Z,91.99
2019-01-12T20:41:27.406Z,92.48
2019-01-12T20:45:05.698Z,93.28
2019-01-12T20:48:36.887Z,92.82
2019-01-12T20:52:04.172Z,93.16
2019-01-12T20:55:35.736Z,92.85
2019-01-12T20:59:05.953Z,93.19
2019-01-12T21:02:23.038Z,93.45
2019-01-12T21:05:43.816Z,93.29
2019-01-12T21:08:56.113Z,93.39
2019-01-12T21:12:29.873Z,93.71
2019-01-12T21:15:19.889Z,94.05
2019-01-12T21:17:50.807Z,93.60
2019-01-12T21:20:21.934Z,93.63
2019-01-12T21:22:53.047Z,93.24
2019-01-12T21:25:24.377Z,93.67
2019-01-12T21:27:55.793Z,93.48
2019-01-12T21:30:27.041Z,93.94
2019-01-12T21:32:57.913Z,93.81
2019-01-12T21:35:28.999Z,92.87
2019-01-12T21:38:00.291Z,93.22
2019-01-12T21:40:31.525Z,93.40
2019-01-12T21:43:02.923Z,93.54
2019-01-12T21:45:38.555Z,93.80
2019-01-12T21:48:07.139Z,92.74
2019-01-12T21:50:38.127Z,93.02
2019-01-12T21:53:08.996Z,93.02
2019-01-12T21:55:39.831Z,92.90
2019-01-12T21:58:10.720Z,93.12
2019-01-12T22:00:41.805Z,93.15
2019-01-12T22:03:12.811Z,92.87
2019-01-12T22:05:43.811Z,92.94
2019-01-12T22:08:15.117Z,92.47
2019-01-12T22:10:46.222Z,92.53
2019-01-12T22:13:18.683Z,91.69
2019-01-12T22:15:50.791Z,91.41
2019-01-12T22:18:26.974Z,91.30
2019-01-12T22:21:26.226Z,91.01
2019-01-12T22:23:57.299Z,91.60
2019-01-12T22:26:28.182Z,91.96
2019-01-12T22:28:59.049Z,92.31
2019-01-12T22:31:29.978Z,92.39
2019-01-12T22:34:01.247Z,92.40
2019-01-12T22:36:32.262Z,92.58
2019-01-12T22:39:03.439Z,92.51
2019-01-12T22:41:34.517Z,92.90
2019-01-12T22:44:05.613Z,92.89
2019-01-12T22:46:36.772Z,93.04
2019-01-12T22:49:07.568Z,93.06
2019-01-12T22:51:38.405Z,93.04
2019-01-12T22:54:09.222Z,93.11
2019-01-12T22:56:39.984Z,92.59
2019-01-12T22:59:11.126Z,92.41
2019-01-12T23:01:58.853Z,91.94
2019-01-12T23:04:31.283Z,91.30
2019-01-12T23:07:02.114Z,92.76
2019-01-12T23:09:33.008Z,92.93
2019-01-12T23:12:03.914Z,92.99
2019-01-12T23:14:35.062Z,92.74
2019-01-12T23:17:06.144Z,92.55
2019-01-12T23:19:37.088Z,92.31
2019-01-12T23:22:07.961Z,92.40
2019-01-12T23:24:38.736Z,92.26
2019-01-12T23:27:09.530Z,92.21
2019-01-12T23:29:40.361Z,92.44
2019-01-12T23:32:11.071Z,92.03
2019-01-12T23:34:41.900Z,92.17
2019-01-12T23:37:12.664Z,92.06
2019-01-12T23:39:43.436Z,92.58
2019-01-12T23:42:14.764Z,92.31
2019-01-12T23:44:45.521Z,92.83
2019-01-12T23:47:16.321Z,93.50
2019-01-12T23:49:47.112Z,93.90
2019-01-12T23:52:18.030Z,94.62
2019-01-12T23:54:48.798Z,94.68
2019-01-12T23:57:19.607Z,94.65
2019-01-12T23:59:50.370Z,94.32
